createdAt,value
2023-05-15T00:01:41.298Z,3.10
2023-05-15T00:04:09.061Z,3.83
2023-05-15T00:06:39.614Z,3.85
2023-05-15T00:09:07.497Z,2.92
2023-05-15T00:11:34.783Z,3.53
2023-05-15T00:14:02.385Z,4.05
2023-05-15T00:16:29.972Z,3.63
2023-05-15T00:18:57.905Z,3.65
2023-05-15T00:21:25.653Z,3.88
2023-05-15T00:23:54.240Z,3.60
2023-05-15T00:26:24.125Z,4.18
2023-05-15T00:28:52.179Z,3.78
2023-05-15T00:31:19.791Z,3.90
2023-05-15T00:33:47.703Z,3.95
2023-05-15T00:36:15.138Z,4.28
2023-05-15T00:38:42.624Z,4.32
2023-05-15T00:41:11.912Z,4.30
2023-05-15T00:43:40.869Z,3.20
2023-05-15T00:46:09.025Z,4.72
2023-05-15T00:48:37.522Z,3.50
2023-05-15T00:51:05.470Z,3.95
2023-05-15T00:53:33.263Z,4.35
2023-05-15T00:56:02.982Z,4.00
2023-05-15T00:58:32.116Z,4.15
2023-05-15T01:00:59.493Z,4.05
2023-05-15T01:03:29.412Z,4.22
2023-05-15T01:05:56.649Z,4.20
2023-05-15T01:08:33.186Z,4.43
2023-05-15T01:11:02.870Z,4.40
2023-05-15T01:13:30.608Z,4.60
2023-05-15T01:15:59.514Z,4.97
2023-05-15T01:18:33.485Z,4.53
2023-05-15T01:21:30.383Z,4.10
2023-05-15T01:24:04.372Z,4.60
2023-05-15T01:26:50.807Z,4.22
2023-05-15T01:29:26.650Z,4.88
2023-05-15T01:32:29.420Z,4.38
2023-05-15T01:35:09.247Z,4.28
2023-05-15T01:37:42.660Z,4.60
2023-05-15T01:40:14.935Z,4.55
2023-05-15T01:42:53.942Z,3.85
2023-05-15T01:45:24.624Z,4.82
2023-05-15T01:47:54.521Z,4.43
2023-05-15T01:50:22.886Z,4.45
2023-05-15T01:52:56.502Z,4.55
2023-05-15T01:55:28.062Z,5.07
2023-05-15T01:57:56.965Z,4.80
2023-05-15T02:00:25.454Z,4.93
2023-05-15T02:02:53.613Z,5.30
2023-05-15T02:05:21.903Z,5.18
2023-05-15T02:07:50.099Z,5.07
2023-05-15T02:10:18.450Z,5.22
2023-05-15T02:12:50.205Z,5.20
2023-05-15T02:15:19.128Z,5.53
2023-05-15T02:17:47.597Z,5.72
2023-05-15T02:20:15.608Z,5.18
2023-05-15T02:22:43.514Z,6.03
2023-05-15T02:25:11.105Z,6.22
2023-05-15T02:27:54.251Z,5.35
2023-05-15T02:30:46.271Z,5.68
2023-05-15T02:33:35.221Z,4.87
2023-05-15T02:36:06.593Z,6.10
2023-05-15T02:38:40.986Z,4.93
2023-05-15T02:41:09.992Z,5.68
2023-05-15T02:43:39.557Z,4.78
2023-05-15T02:46:08.705Z,4.85
2023-05-15T02:48:39.128Z,5.10
2023-05-15T02:51:07.722Z,4.53
2023-05-15T02:53:40.362Z,4.22
2023-05-15T02:56:08.730Z,4.10
2023-05-15T02:58:36.993Z,4.03
2023-05-15T03:01:04.865Z,3.55
2023-05-15T03:03:33.776Z,3.67
2023-05-15T03:06:01.557Z,3.60
2023-05-15T03:08:29.149Z,3.75
2023-05-15T03:10:56.756Z,4.22
2023-05-15T03:13:23.926Z,3.65
2023-05-15T03:15:53.317Z,4.25
2023-05-15T03:18:20.795Z,4.18
2023-05-15T03:20:49.280Z,3.40
2023-05-15T03:23:16.538Z,4.13
2023-05-15T03:25:44.111Z,3.83
2023-05-15T03:28:11.635Z,4.72
2023-05-15T03:30:39.204Z,4.03
2023-05-15T03:33:06.789Z,4.07
2023-05-15T03:35:34.568Z,4.38
2023-05-15T03:38:02.669Z,3.75
2023-05-15T03:40:30.206Z,4.43
2023-05-15T03:42:58.378Z,4.10
2023-05-15T03:45:26.230Z,4.07
2023-05-15T03:47:53.792Z,3.88
2023-05-15T03:50:21.415Z,3.80
2023-05-15T03:52:48.730Z,3.00
2023-05-15T03:55:16.324Z,3.63
2023-05-15T03:57:43.913Z,3.22
2023-05-15T04:00:12.168Z,2.92
2023-05-15T04:02:42.450Z,2.47
2023-05-15T04:05:10.806Z,3.35
2023-05-15T04:07:38.450Z,3.13
2023-05-15T04:10:06.759Z,2.35
2023-05-15T04:12:35.580Z,3.00
2023-05-15T04:15:22.319Z,3.63
2023-05-15T04:17:52.115Z,3.05
2023-05-15T04:20:22.726Z,3.15
2023-05-15T04:22:50.753Z,3.40
2023-05-15T04:25:20.256Z,3.67
2023-05-15T04:27:47.827Z,3.70
2023-05-15T04:30:15.559Z,3.88
2023-05-15T04:32:43.164Z,3.80
2023-05-15T04:35:15.421Z,3.83
2023-05-15T04:37:45.509Z,4.00
2023-05-15T04:40:16.305Z,4.72
2023-05-15T04:42:43.938Z,4.15
2023-05-15T04:45:11.515Z,4.22
2023-05-15T04:47:38.819Z,3.80
2023-05-15T04:50:07.417Z,4.18
2023-05-15T04:52:34.677Z,4.45
2023-05-15T04:55:02.371Z,4.53
2023-05-15T04:57:30.379Z,4.38
2023-05-15T04:59:58.258Z,4.57
2023-05-15T05:02:25.786Z,4.72
2023-05-15T05:04:53.494Z,5.13
2023-05-15T05:07:20.740Z,4.78
2023-05-15T05:09:48.426Z,4.55
2023-05-15T05:12:15.702Z,6.50
2023-05-15T05:14:44.728Z,4.60
2023-05-15T05:17:12.080Z,4.38
2023-05-15T05:19:39.759Z,5.32
2023-05-15T05:22:07.734Z,5.72
2023-05-15T05:24:37.431Z,4.50
2023-05-15T05:27:05.524Z,6.00
2023-05-15T05:29:33.309Z,5.70
2023-05-15T05:32:00.795Z,5.50
2023-05-15T05:34:28.554Z,5.93
2023-05-15T05:36:55.893Z,6.40
2023-05-15T05:39:23.475Z,6.95
2023-05-15T05:41:50.680Z,8.25
2023-05-15T05:44:18.239Z,7.40
2023-05-15T05:46:46.405Z,7.25
2023-05-15T05:49:13.937Z,7.65
2023-05-15T05:51:41.134Z,6.65
2023-05-15T05:54:08.695Z,8.38
2023-05-15T05:56:36.302Z,7.20
2023-05-15T05:59:04.111Z,7.30
2023-05-15T06:01:31.440Z,7.32
2023-05-15T06:03:58.921Z,7.50
2023-05-15T06:06:26.306Z,9.07
2023-05-15T06:08:56.170Z,8.20
2023-05-15T06:11:25.441Z,7.35
2023-05-15T06:13:53.249Z,6.85
2023-05-15T06:16:20.703Z,7.15
2023-05-15T06:18:48.538Z,6.90
2023-05-15T06:21:15.962Z,7.10
2023-05-15T06:23:43.479Z,7.90
2023-05-15T06:26:11.065Z,7.50
2023-05-15T06:28:38.530Z,8.43
2023-05-15T06:31:06.103Z,8.55
2023-05-15T06:33:36.756Z,7.85
2023-05-15T06:36:04.158Z,7.60
2023-05-15T06:38:31.736Z,7.60
2023-05-15T06:40:58.975Z,6.90
2023-05-15T06:43:26.557Z,8.25
2023-05-15T06:45:53.933Z,7.38
2023-05-15T06:48:21.454Z,7.85
2023-05-15T06:50:48.815Z,7.38
2023-05-15T06:53:17.794Z,8.15
2023-05-15T06:55:45.055Z,6.75
2023-05-15T06:58:12.643Z,6.60
2023-05-15T07:00:40.326Z,6.72
2023-05-15T07:03:07.849Z,6.60
2023-05-15T07:05:35.257Z,7.40
2023-05-15T07:08:02.909Z,7.00
2023-05-15T07:10:30.264Z,6.32
2023-05-15T07:12:57.758Z,6.80
2023-05-15T07:15:25.197Z,7.05
2023-05-15T07:17:53.351Z,6.78
2023-05-15T07:20:21.099Z,6.93
2023-05-15T07:22:56.299Z,6.70
2023-05-15T07:25:25.380Z,6.72
2023-05-15T07:27:53.740Z,6.55
2023-05-15T07:30:21.355Z,5.60
2023-05-15T07:32:49.454Z,5.70
2023-05-15T07:35:16.807Z,6.10
2023-05-15T07:37:44.521Z,5.70
2023-05-15T07:40:12.132Z,5.82
2023-05-15T07:42:39.868Z,5.72
2023-05-15T07:45:08.026Z,5.93
2023-05-15T07:47:36.081Z,6.70
2023-05-15T07:50:03.798Z,5.65
2023-05-15T07:52:31.311Z,6.53
2023-05-15T07:54:59.134Z,6.75
2023-05-15T07:57:26.918Z,6.13
2023-05-15T07:59:54.388Z,6.93
2023-05-15T08:02:22.044Z,6.90
2023-05-15T08:04:49.588Z,7.50
2023-05-15T08:07:17.243Z,8.10
2023-05-15T08:09:44.616Z,7.05
2023-05-15T08:12:22.057Z,7.55
2023-05-15T08:14:54.485Z,8.20
2023-05-15T08:17:23.202Z,7.25
2023-05-15T08:19:50.699Z,7.70
2023-05-15T08:22:18.270Z,7.55
2023-05-15T08:24:45.632Z,7.00
2023-05-15T08:27:13.950Z,6.65
2023-05-15T08:29:41.280Z,6.28
2023-05-15T08:32:09.404Z,6.32
2023-05-15T08:34:37.045Z,7.05
2023-05-15T08:37:06.278Z,7.50
2023-05-15T08:39:33.698Z,6.63
2023-05-15T08:42:09.361Z,8.05
2023-05-15T08:44:37.008Z,8.23
2023-05-15T08:47:06.058Z,8.25
2023-05-15T08:49:52.395Z,7.57
2023-05-15T08:52:20.728Z,8.55
2023-05-15T08:54:48.898Z,8.25
2023-05-15T08:57:17.592Z,10.10
2023-05-15T08:59:46.187Z,9.65
2023-05-15T09:02:13.680Z,9.00
2023-05-15T09:04:41.621Z,9.82
2023-05-15T09:07:11.429Z,10.27
2023-05-15T09:09:39.421Z,10.02
2023-05-15T09:12:11.069Z,9.40
2023-05-15T09:14:38.432Z,9.10
2023-05-15T09:17:06.430Z,9.30
2023-05-15T09:19:38.883Z,9.98
2023-05-15T09:22:25.783Z,10.05
2023-05-15T09:24:53.391Z,10.10
2023-05-15T09:27:21.133Z,9.85
2023-05-15T09:29:51.426Z,9.73
2023-05-15T09:32:19.468Z,10.90
2023-05-15T09:34:47.038Z,11.15
2023-05-15T09:37:32.080Z,10.40
2023-05-15T09:40:10.052Z,9.90
2023-05-15T09:42:38.808Z,11.23
2023-05-15T09:45:06.889Z,10.77
2023-05-15T09:47:34.827Z,10.55
2023-05-15T09:50:02.293Z,10.48
2023-05-15T09:52:30.252Z,10.02
2023-05-15T09:54:58.024Z,11.40
2023-05-15T09:57:25.608Z,10.40
2023-05-15T09:59:52.897Z,11.35
2023-05-15T10:02:25.170Z,10.23
2023-05-15T10:04:57.455Z,9.70
2023-05-15T10:07:29.611Z,11.48
2023-05-15T10:09:57.197Z,12.52
2023-05-15T10:12:25.283Z,10.65
2023-05-15T10:14:55.949Z,11.40
2023-05-15T10:17:23.919Z,11.65
2023-05-15T10:19:58.292Z,11.48
2023-05-15T10:22:30.824Z,10.30
2023-05-15T10:25:12.112Z,10.77
2023-05-15T10:27:41.639Z,12.18
2023-05-15T10:30:12.087Z,10.05
2023-05-15T10:32:42.001Z,11.05
2023-05-15T10:35:12.918Z,11.57
2023-05-15T10:37:40.927Z,10.25
2023-05-15T10:40:12.759Z,9.65
2023-05-15T10:42:43.541Z,10.25
2023-05-15T10:45:11.553Z,9.82
2023-05-15T10:47:40.994Z,10.40
2023-05-15T10:50:09.259Z,12.02
2023-05-15T10:52:38.589Z,11.30
2023-05-15T10:55:14.042Z,9.98
2023-05-15T10:57:41.764Z,9.93
2023-05-15T11:00:24.287Z,9.85
2023-05-15T11:02:56.601Z,9.27
2023-05-15T11:05:24.672Z,9.75
2023-05-15T11:08:21.614Z,9.82
2023-05-15T11:10:48.994Z,9.95
2023-05-15T11:13:16.476Z,9.30
2023-05-15T11:15:45.573Z,8.82
2023-05-15T11:18:13.800Z,8.85
2023-05-15T11:20:43.342Z,9.23
2023-05-15T11:23:11.158Z,7.97
2023-05-15T11:25:38.647Z,7.63
2023-05-15T11:28:07.673Z,6.95
2023-05-15T11:30:41.320Z,7.25
2023-05-15T11:33:11.599Z,6.85
2023-05-15T11:35:45.833Z,6.50
2023-05-15T11:38:26.273Z,6.60
2023-05-15T11:40:58.619Z,6.60
2023-05-15T11:43:28.318Z,6.18
2023-05-15T11:46:04.910Z,5.47
2023-05-15T11:48:43.580Z,4.97
2023-05-15T11:51:25.011Z,5.15
2023-05-15T11:53:56.975Z,4.45
2023-05-15T11:56:28.400Z,4.93
2023-05-15T11:58:57.667Z,4.18
2023-05-15T12:01:25.326Z,3.28
2023-05-15T12:03:56.777Z,3.55
2023-05-15T12:06:24.558Z,4.20
2023-05-15T12:08:53.182Z,4.50
2023-05-15T12:11:24.679Z,4.45
2023-05-15T12:13:54.154Z,3.22
2023-05-15T12:16:28.803Z,3.72
2023-05-15T12:19:00.642Z,3.20
2023-05-15T12:21:28.151Z,4.25
2023-05-15T12:26:27.781Z,4.00
2023-05-15T12:28:56.506Z,4.00
2023-05-15T12:31:24.336Z,4.40
2023-05-15T12:33:52.252Z,3.47
2023-05-15T12:36:22.863Z,3.58
2023-05-15T12:38:50.671Z,3.10
2023-05-15T12:41:20.380Z,3.97
2023-05-15T12:43:48.789Z,3.90
2023-05-15T12:46:16.022Z,3.45
2023-05-15T12:48:44.779Z,2.85
2023-05-15T12:51:11.964Z,3.22
2023-05-15T12:53:42.304Z,2.97
2023-05-15T12:56:10.057Z,3.40
2023-05-15T12:58:38.340Z,3.42
2023-05-15T13:01:07.952Z,3.08
2023-05-15T13:03:36.328Z,3.58
2023-05-15T13:06:03.826Z,3.72
2023-05-15T13:08:32.676Z,4.15
2023-05-15T13:11:01.094Z,4.13
2023-05-15T13:13:45.968Z,4.25
2023-05-15T13:16:29.722Z,3.63
2023-05-15T13:19:00.495Z,4.20
2023-05-15T13:21:28.561Z,5.22
2023-05-15T13:23:56.231Z,5.05
2023-05-15T13:26:23.479Z,4.55
2023-05-15T13:28:51.696Z,4.50
2023-05-15T13:31:19.086Z,4.13
2023-05-15T13:33:46.884Z,4.80
2023-05-15T13:36:14.397Z,4.45
2023-05-15T13:38:42.143Z,4.43
2023-05-15T13:41:09.969Z,4.03
2023-05-15T13:43:37.596Z,3.85
2023-05-15T13:46:05.072Z,3.85
2023-05-15T13:48:34.656Z,3.05
2023-05-15T13:51:01.929Z,3.05
2023-05-15T13:53:29.402Z,2.22
2023-05-15T13:55:56.600Z,2.17
2023-05-15T13:58:26.720Z,2.80
2023-05-15T14:00:54.453Z,2.42
2023-05-15T14:03:22.109Z,1.80
2023-05-15T14:05:49.340Z,2.53
2023-05-15T14:08:17.321Z,1.58
2023-05-15T14:10:44.554Z,2.28
2023-05-15T14:13:12.050Z,2.08
2023-05-15T14:15:39.535Z,2.47
2023-05-15T14:18:07.502Z,2.00
2023-05-15T14:20:34.832Z,1.95
2023-05-15T14:23:02.618Z,1.48
2023-05-15T14:25:30.058Z,2.03
2023-05-15T14:27:57.708Z,1.73
2023-05-15T14:30:25.292Z,1.50
2023-05-15T14:32:52.956Z,1.08
2023-05-15T14:35:21.634Z,1.10
2023-05-15T14:37:49.190Z,1.35
2023-05-15T14:40:16.838Z,1.27
2023-05-15T14:42:44.761Z,1.48
2023-05-15T14:45:12.671Z,1.08
2023-05-15T14:47:43.287Z,0.80
2023-05-15T14:50:11.190Z,0.85
2023-05-15T14:52:38.720Z,0.80
2023-05-15T14:55:09.798Z,0.88
2023-05-15T14:57:38.664Z,0.98
2023-05-15T15:00:07.457Z,0.95
2023-05-15T15:02:35.145Z,0.70
2023-05-15T15:05:02.570Z,0.98
2023-05-15T15:07:33.797Z,1.10
2023-05-15T15:10:01.311Z,1.20
2023-05-15T15:12:28.888Z,1.30
2023-05-15T15:14:56.461Z,1.40
2023-05-15T15:17:24.018Z,1.50
2023-05-15T15:19:51.302Z,1.55
2023-05-15T15:22:20.919Z,1.20
2023-05-15T15:24:48.459Z,1.35
2023-05-15T15:27:16.469Z,1.70
2023-05-15T15:29:44.098Z,1.77
2023-05-15T15:32:11.824Z,1.75
2023-05-15T15:34:39.320Z,1.70
2023-05-15T15:37:06.808Z,2.30
2023-05-15T15:39:34.075Z,2.80
2023-05-15T15:42:03.381Z,2.80
2023-05-15T15:44:34.487Z,2.58
2023-05-15T15:47:02.240Z,1.70
2023-05-15T15:49:29.457Z,3.10
2023-05-15T15:51:57.609Z,2.67
2023-05-15T15:54:24.871Z,2.30
2023-05-15T15:56:52.550Z,3.17
2023-05-15T15:59:19.838Z,2.92
2023-05-15T16:01:48.235Z,2.58
2023-05-15T16:04:16.241Z,4.03
2023-05-15T16:06:44.036Z,3.55
2023-05-15T16:09:11.861Z,3.88
2023-05-15T16:11:39.528Z,3.55
2023-05-15T16:14:06.872Z,3.50
2023-05-15T16:16:34.460Z,3.60
2023-05-15T16:19:01.862Z,3.97
2023-05-15T16:21:29.618Z,3.40
2023-05-15T16:23:57.215Z,3.28
2023-05-15T16:26:24.752Z,3.53
2023-05-15T16:28:52.616Z,2.67
2023-05-15T16:31:20.730Z,2.67
2023-05-15T16:33:48.359Z,2.50
2023-05-15T16:36:16.872Z,1.85
2023-05-15T16:38:44.520Z,1.83
2023-05-15T16:41:12.068Z,1.55
2023-05-15T16:43:39.393Z,1.75
2023-05-15T16:46:09.547Z,1.67
2023-05-15T16:48:36.885Z,1.90
2023-05-15T16:51:04.916Z,1.48
2023-05-15T16:53:32.507Z,1.52
2023-05-15T16:56:00.089Z,1.80
2023-05-15T16:58:28.170Z,1.75
2023-05-15T17:00:56.191Z,1.73
2023-05-15T17:03:24.093Z,1.65
2023-05-15T17:05:52.476Z,1.10
2023-05-15T17:08:20.194Z,1.27
2023-05-15T17:10:48.170Z,1.63
2023-05-15T17:13:15.953Z,1.10
2023-05-15T17:15:45.066Z,1.27
2023-05-15T17:18:12.741Z,0.85
2023-05-15T17:20:40.908Z,0.68
2023-05-15T17:23:08.605Z,0.70
2023-05-15T17:25:36.616Z,0.73
2023-05-15T17:28:04.336Z,0.60
2023-05-15T17:30:32.032Z,0.73
2023-05-15T17:33:00.526Z,0.70
2023-05-15T17:35:30.575Z,0.60
2023-05-15T17:37:59.599Z,0.70
2023-05-15T17:40:27.385Z,0.95
2023-05-15T17:42:54.644Z,1.17
2023-05-15T17:45:22.101Z,1.00
2023-05-15T17:47:49.653Z,1.20
2023-05-15T17:50:17.350Z,1.38
2023-05-15T17:52:44.785Z,1.52
2023-05-15T17:55:12.319Z,1.70
2023-05-15T17:57:39.539Z,2.03
2023-05-15T18:00:09.458Z,1.90
2023-05-15T18:02:39.881Z,1.90
2023-05-15T18:05:07.854Z,2.72
2023-05-15T18:07:35.068Z,1.90
2023-05-15T18:10:02.603Z,2.47
2023-05-15T18:12:30.134Z,2.40
2023-05-15T18:14:57.696Z,3.45
2023-05-15T18:17:25.028Z,3.20
2023-05-15T18:19:52.613Z,3.15
2023-05-15T18:22:20.506Z,3.20
2023-05-15T18:24:48.235Z,4.50
2023-05-15T18:27:15.602Z,3.38
2023-05-15T18:29:45.570Z,3.60
2023-05-15T18:32:13.496Z,3.25
2023-05-15T18:34:41.122Z,3.75
2023-05-15T18:37:08.407Z,3.50
2023-05-15T18:39:38.185Z,3.92
2023-05-15T18:42:06.544Z,3.28
2023-05-15T18:44:35.866Z,3.80
2023-05-15T18:47:03.612Z,3.58
2023-05-15T18:49:31.597Z,3.75
2023-05-15T18:51:59.017Z,2.92
2023-05-15T18:54:27.148Z,3.20
2023-05-15T18:56:54.529Z,3.75
2023-05-15T18:59:22.304Z,2.63
2023-05-15T19:01:49.684Z,2.30
2023-05-15T19:04:17.321Z,2.88
2023-05-15T19:06:45.823Z,2.55
2023-05-15T19:09:13.520Z,2.17
2023-05-15T19:11:41.290Z,3.38
2023-05-15T19:14:08.849Z,2.65
2023-05-15T19:16:36.339Z,3.10
2023-05-15T19:19:04.072Z,3.88
2023-05-15T19:21:31.404Z,4.47
2023-05-15T19:23:58.859Z,5.40
2023-05-15T19:26:26.281Z,6.10
2023-05-15T19:28:53.906Z,4.43
2023-05-15T19:33:55.346Z,3.08
2023-05-15T19:36:22.837Z,3.47
2023-05-15T19:38:50.553Z,4.00
2023-05-15T19:41:17.723Z,4.45
2023-05-15T19:43:46.438Z,5.15
2023-05-15T19:46:14.070Z,5.25
2023-05-15T19:48:41.642Z,5.15
2023-05-15T19:51:09.232Z,5.03
2023-05-15T19:53:36.717Z,5.32
2023-05-15T19:56:04.540Z,5.00
2023-05-15T19:58:32.747Z,4.72
2023-05-15T20:01:00.311Z,4.00
2023-05-15T20:03:33.025Z,4.80
2023-05-15T20:06:03.676Z,4.70
2023-05-15T20:08:31.582Z,4.65
2023-05-15T20:10:58.767Z,4.78
2023-05-15T20:13:26.386Z,4.18
2023-05-15T20:15:56.954Z,4.43
2023-05-15T20:18:28.701Z,4.65
2023-05-15T20:20:56.358Z,4.43
2023-05-15T20:23:24.323Z,4.85
2023-05-15T20:25:52.089Z,4.63
2023-05-15T20:28:21.480Z,3.92
2023-05-15T20:30:48.794Z,4.13
2023-05-15T20:33:16.690Z,4.05
2023-05-15T20:35:45.373Z,3.88
2023-05-15T20:38:12.933Z,3.65
2023-05-15T20:40:40.450Z,4.13
2023-05-15T20:43:08.228Z,4.40
2023-05-15T20:45:35.598Z,4.18
2023-05-15T20:48:03.700Z,12.38
2023-05-15T20:50:31.160Z,5.75
2023-05-15T20:52:58.928Z,19.75
2023-05-15T20:55:26.294Z,58.25
2023-05-15T20:57:54.392Z,83.72
2023-05-15T21:00:21.981Z,48.25
2023-05-15T21:02:49.747Z,51.65
2023-05-15T21:05:17.197Z,190.82
2023-05-15T21:07:44.907Z,46.38
2023-05-15T21:10:12.148Z,34.95
2023-05-15T21:12:40.673Z,72.57
2023-05-15T21:15:08.852Z,99.20
2023-05-15T21:17:36.532Z,68.05
2023-05-15T21:20:05.005Z,38.63
2023-05-15T21:22:34.471Z,15.52
2023-05-15T21:25:02.225Z,10.57
2023-05-15T21:27:30.066Z,6.65
2023-05-15T21:29:57.299Z,7.35
2023-05-15T21:32:24.935Z,6.72
2023-05-15T21:34:52.231Z,7.18
2023-05-15T21:37:19.710Z,6.10
2023-05-15T21:39:46.906Z,7.50
2023-05-15T21:42:15.160Z,7.30
2023-05-15T21:44:43.504Z,6.78
2023-05-15T21:47:13.663Z,7.95
2023-05-15T21:49:40.905Z,7.60
2023-05-15T21:52:08.551Z,8.20
2023-05-15T21:54:35.929Z,8.35
2023-05-15T21:57:03.849Z,8.20
2023-05-15T21:59:31.115Z,8.93
2023-05-15T22:01:58.769Z,10.35
2023-05-15T22:04:26.169Z,16.90
2023-05-15T22:06:53.822Z,13.88
2023-05-15T22:09:21.213Z,33.80
2023-05-15T22:11:48.782Z,9.20
2023-05-15T22:14:16.318Z,12.93
2023-05-15T22:16:44.152Z,25.98
2023-05-15T22:19:25.064Z,11.20
2023-05-15T22:22:01.312Z,25.63
2023-05-15T22:24:28.723Z,10.05
2023-05-15T22:26:56.420Z,15.80
2023-05-15T22:29:23.665Z,24.17
2023-05-15T22:31:51.292Z,20.63
2023-05-15T22:34:18.788Z,18.50
2023-05-15T22:36:46.514Z,13.85
2023-05-15T22:39:13.835Z,19.63
2023-05-15T22:41:41.302Z,14.50
2023-05-15T22:44:08.495Z,10.07
2023-05-15T22:46:38.015Z,16.25
2023-05-15T22:49:09.281Z,11.23
2023-05-15T22:51:37.372Z,17.65
2023-05-15T22:54:04.630Z,14.00
2023-05-15T22:56:32.294Z,19.00
2023-05-15T22:58:59.610Z,11.40
2023-05-15T23:01:28.729Z,12.05
2023-05-15T23:03:56.254Z,10.10
2023-05-15T23:06:23.863Z,11.57
2023-05-15T23:08:51.286Z,11.27
2023-05-15T23:11:19.118Z,12.90
2023-05-15T23:13:46.341Z,11.68
2023-05-15T23:16:14.161Z,12.27
2023-05-15T23:18:41.866Z,12.30
2023-05-15T23:21:09.448Z,15.30
2023-05-15T23:23:36.818Z,13.15
2023-05-15T23:26:04.423Z,14.63
2023-05-15T23:28:31.728Z,11.48
2023-05-15T23:30:59.287Z,11.80
2023-05-15T23:33:26.958Z,12.02
2023-05-15T23:35:54.416Z,12.55
2023-05-15T23:38:23.458Z,12.55
2023-05-15T23:40:51.163Z,12.68
2023-05-15T23:43:18.424Z,12.88
2023-05-15T23:45:45.989Z,12.70
2023-05-15T23:48:13.751Z,11.93
2023-05-15T23:50:41.585Z,11.45
2023-05-15T23:53:09.131Z,11.48
2023-05-15T23:55:36.732Z,11.45
2023-05-15T23:58:04.140Z,12.82
